createdAt,value
2022-11-18T00:02:03.094Z,6.94
2022-11-18T00:05:05.934Z,6.95
2022-11-18T00:08:08.707Z,6.98
2022-11-18T00:11:12.911Z,6.95
2022-11-18T00:14:22.813Z,6.98
2022-11-18T00:17:26.859Z,6.93
2022-11-18T00:20:29.663Z,6.90
2022-11-18T00:23:32.547Z,6.86
2022-11-18T00:26:36.201Z,6.87
2022-11-18T00:29:43.323Z,6.89
2022-11-18T00:32:47.560Z,6.86
2022-11-18T00:35:54.618Z,6.88
2022-11-18T00:38:57.442Z,6.83
2022-11-18T00:42:17.449Z,6.84
2022-11-18T00:45:20.451Z,6.87
2022-11-18T00:48:24.942Z,6.86
2022-11-18T00:51:27.806Z,6.85
2022-11-18T00:54:30.842Z,6.86
2022-11-18T00:57:33.566Z,6.90
2022-11-18T01:00:36.548Z,6.94
2022-11-18T01:03:40.768Z,6.91
2022-11-18T01:06:43.533Z,6.88
2022-11-18T01:09:47.140Z,6.87
2022-11-18T01:13:07.442Z,6.81
2022-11-18T01:16:10.229Z,6.83
2022-11-18T01:19:14.436Z,6.82
2022-11-18T01:22:17.412Z,6.85
2022-11-18T01:25:20.227Z,6.88
2022-11-18T01:28:24.144Z,6.85
2022-11-18T01:31:27.210Z,6.85
2022-11-18T01:34:31.343Z,6.90
2022-11-18T01:37:34.124Z,6.87
2022-11-18T01:40:36.980Z,6.87
2022-11-18T01:43:50.386Z,6.92
2022-11-18T01:46:53.141Z,6.92
2022-11-18T01:49:57.662Z,6.97
2022-11-18T01:53:03.058Z,6.96
2022-11-18T01:56:08.220Z,6.96
2022-11-18T01:59:12.762Z,6.92
2022-11-18T02:02:16.031Z,6.92
2022-11-18T02:05:20.382Z,6.92
2022-11-18T02:08:23.546Z,7.00
2022-11-18T02:11:40.498Z,7.01
2022-11-18T02:14:45.140Z,6.92
2022-11-18T02:17:53.968Z,6.96
2022-11-18T02:21:02.588Z,6.95
2022-11-18T02:24:23.878Z,6.92
2022-11-18T02:27:41.806Z,6.92
2022-11-18T02:30:50.051Z,6.89
2022-11-18T02:33:55.862Z,6.83
2022-11-18T02:37:00.819Z,6.85
2022-11-18T02:40:06.457Z,6.86
2022-11-18T02:43:11.364Z,6.87
2022-11-18T02:46:17.643Z,6.89
2022-11-18T02:49:23.445Z,7.05
2022-11-18T02:52:28.159Z,7.06
2022-11-18T02:55:32.618Z,7.04
2022-11-18T02:58:35.404Z,6.96
2022-11-18T03:01:39.523Z,6.90
2022-11-18T03:04:42.381Z,6.86
2022-11-18T03:07:47.745Z,6.78
2022-11-18T03:10:53.857Z,6.80
2022-11-18T03:14:07.910Z,6.82
2022-11-18T03:17:14.733Z,6.92
2022-11-18T03:20:21.146Z,7.09
2022-11-18T03:23:27.215Z,7.02
2022-11-18T03:26:32.594Z,6.98
2022-11-18T03:29:38.161Z,6.99
2022-11-18T03:32:43.987Z,7.08
2022-11-18T03:35:48.349Z,7.01
2022-11-18T03:38:52.540Z,6.96
2022-11-18T03:41:57.056Z,7.20
2022-11-18T03:45:01.834Z,7.09
2022-11-18T03:48:10.787Z,7.17
2022-11-18T03:51:15.849Z,6.98
2022-11-18T03:54:21.911Z,7.07
2022-11-18T03:57:28.126Z,6.94
2022-11-18T04:00:34.135Z,7.03
2022-11-18T04:03:38.789Z,7.10
2022-11-18T04:06:44.316Z,6.89
2022-11-18T04:09:49.448Z,6.96
2022-11-18T04:12:54.662Z,7.01
2022-11-18T04:15:57.547Z,6.84
2022-11-18T04:19:06.226Z,6.93
2022-11-18T04:22:09.900Z,6.98
2022-11-18T04:25:12.691Z,6.90
2022-11-18T04:28:15.467Z,6.88
2022-11-18T04:31:18.637Z,6.96
2022-11-18T04:34:22.879Z,7.00
2022-11-18T04:37:25.631Z,6.94
2022-11-18T04:40:28.404Z,7.05
2022-11-18T04:43:31.262Z,7.17
2022-11-18T04:46:34.003Z,7.11
2022-11-18T04:49:38.149Z,7.17
2022-11-18T04:52:40.952Z,7.21
2022-11-18T04:55:43.733Z,7.24
2022-11-18T04:58:47.566Z,7.20
2022-11-18T05:01:50.760Z,7.19
2022-11-18T05:04:54.847Z,7.16
2022-11-18T05:07:57.529Z,7.00
2022-11-18T05:11:20.781Z,7.09
2022-11-18T05:14:22.559Z,7.04
2022-11-18T05:17:25.368Z,7.00
2022-11-18T05:20:29.504Z,6.97
2022-11-18T05:23:32.281Z,7.01
2022-11-18T05:26:35.003Z,6.94
2022-11-18T05:29:38.224Z,6.98
2022-11-18T05:32:41.172Z,7.04
2022-11-18T05:35:45.346Z,6.97
2022-11-18T05:38:48.446Z,6.96
2022-11-18T05:42:08.854Z,6.96
2022-11-18T05:45:11.596Z,6.86
2022-11-18T05:48:14.335Z,6.75
2022-11-18T05:51:18.420Z,6.77
2022-11-18T05:54:22.259Z,6.80
2022-11-18T05:57:25.288Z,6.75
2022-11-18T06:00:28.496Z,6.59
2022-11-18T06:03:33.011Z,6.56
2022-11-18T06:06:37.129Z,6.58
2022-11-18T06:09:42.385Z,6.61
2022-11-18T06:12:46.818Z,6.70
2022-11-18T06:15:49.621Z,6.67
2022-11-18T06:18:52.486Z,6.68
2022-11-18T06:21:56.552Z,6.89
2022-11-18T06:24:59.335Z,6.89
2022-11-18T06:28:03.422Z,6.82
2022-11-18T06:31:06.354Z,6.76
2022-11-18T06:34:09.028Z,6.68
2022-11-18T06:37:16.759Z,6.63
2022-11-18T06:40:19.704Z,6.63
2022-11-18T06:43:41.647Z,6.63
2022-11-18T06:46:59.983Z,6.30
2022-11-18T06:50:02.693Z,6.45
2022-11-18T06:53:06.899Z,6.48
2022-11-18T06:56:10.815Z,6.51
2022-11-18T06:59:13.813Z,6.61
2022-11-18T07:02:18.913Z,6.63
2022-11-18T07:05:21.619Z,6.67
2022-11-18T07:08:25.756Z,6.63
2022-11-18T07:11:28.683Z,6.59
2022-11-18T07:14:31.715Z,6.56
2022-11-18T07:17:34.391Z,6.60
2022-11-18T07:20:37.085Z,6.65
2022-11-18T07:23:41.208Z,6.70
2022-11-18T07:26:44.330Z,6.75
2022-11-18T07:29:47.010Z,6.79
2022-11-18T07:32:49.678Z,6.75
2022-11-18T07:35:52.373Z,6.70
2022-11-18T07:38:57.213Z,6.72
2022-11-18T07:41:59.903Z,6.73
2022-11-18T07:45:02.564Z,6.70
2022-11-18T07:48:05.412Z,6.60
2022-11-18T07:51:08.176Z,6.60
2022-11-18T07:54:12.919Z,6.56
2022-11-18T07:57:15.595Z,6.60
2022-11-18T08:00:18.889Z,6.58
2022-11-18T08:03:21.738Z,6.59
2022-11-18T08:06:24.496Z,6.58
2022-11-18T08:09:28.571Z,6.51
2022-11-18T08:12:31.585Z,6.48
2022-11-18T08:15:34.347Z,6.43
2022-11-18T08:18:37.050Z,6.38
2022-11-18T08:21:39.750Z,6.40
2022-11-18T08:24:43.923Z,6.43
2022-11-18T08:27:46.664Z,6.40
2022-11-18T08:30:49.380Z,6.36
2022-11-18T08:33:55.341Z,6.33
2022-11-18T08:36:58.226Z,6.35
2022-11-18T08:40:02.376Z,6.30
2022-11-18T08:43:05.108Z,6.24
2022-11-18T08:46:07.867Z,6.27
2022-11-18T08:49:10.616Z,6.19
2022-11-18T08:52:13.336Z,6.04
2022-11-18T08:55:17.471Z,5.84
2022-11-18T08:58:20.202Z,5.83
2022-11-18T09:01:22.926Z,5.84
2022-11-18T09:04:25.745Z,5.81
2022-11-18T09:07:28.513Z,5.76
2022-11-18T09:10:34.442Z,5.78
2022-11-18T09:17:00.169Z,5.71
2022-11-18T09:20:02.961Z,5.50
2022-11-18T09:23:05.726Z,5.36
2022-11-18T09:26:10.629Z,5.27
2022-11-18T09:29:13.433Z,5.27
2022-11-18T09:32:16.198Z,5.20
2022-11-18T09:35:19.173Z,5.15
2022-11-18T09:38:21.973Z,5.07
2022-11-18T09:41:36.321Z,4.92
2022-11-18T09:44:46.348Z,4.73
2022-11-18T09:47:49.408Z,4.67
2022-11-18T09:50:53.757Z,4.52
2022-11-18T09:53:56.448Z,4.51
2022-11-18T09:57:00.728Z,4.48
2022-11-18T10:00:03.769Z,4.35
2022-11-18T10:03:17.196Z,4.43
2022-11-18T10:06:23.979Z,4.46
2022-11-18T10:09:29.262Z,4.55
2022-11-18T10:12:37.006Z,4.45
2022-11-18T10:15:44.703Z,4.32
2022-11-18T10:19:00.420Z,4.19
2022-11-18T10:22:21.064Z,4.09
2022-11-18T10:25:26.646Z,4.22
2022-11-18T10:28:32.199Z,4.33
2022-11-18T10:31:37.493Z,4.01
2022-11-18T10:34:47.469Z,4.06
2022-11-18T10:38:07.940Z,4.04
2022-11-18T10:41:13.930Z,4.08
2022-11-18T10:44:34.363Z,4.02
2022-11-18T10:47:38.483Z,3.99
2022-11-18T10:50:49.240Z,4.02
2022-11-18T10:54:08.038Z,4.25
2022-11-18T10:57:16.214Z,3.69
2022-11-18T11:00:48.778Z,3.71
2022-11-18T11:03:59.710Z,3.76
2022-11-18T11:07:15.015Z,3.53
2022-11-18T11:10:23.229Z,3.50
2022-11-18T11:13:27.948Z,3.53
2022-11-18T11:16:31.538Z,3.40
2022-11-18T11:19:41.990Z,3.41
2022-11-18T11:22:44.720Z,3.41
2022-11-18T11:29:19.938Z,3.35
2022-11-18T11:32:28.871Z,3.19
2022-11-18T11:35:35.732Z,2.97
2022-11-18T11:38:44.378Z,3.06
2022-11-18T11:41:50.245Z,3.04
2022-11-18T11:45:01.064Z,2.76
2022-11-18T11:48:16.405Z,2.83
2022-11-18T11:51:24.685Z,2.69
2022-11-18T11:54:36.621Z,2.42
2022-11-18T11:57:43.329Z,2.51
2022-11-18T12:00:50.650Z,2.44
2022-11-18T12:03:56.986Z,2.51
2022-11-18T12:07:01.308Z,2.57
2022-11-18T12:10:10.218Z,2.38
2022-11-18T12:13:19.897Z,2.27
2022-11-18T12:16:26.093Z,2.22
2022-11-18T12:19:28.841Z,2.12
2022-11-18T12:22:46.351Z,2.07
2022-11-18T12:25:54.450Z,1.95
2022-11-18T12:29:17.252Z,1.91
2022-11-18T12:32:42.219Z,1.87
2022-11-18T12:35:48.163Z,2.02
2022-11-18T12:38:52.482Z,2.07
2022-11-18T12:42:15.099Z,1.84
2022-11-18T12:45:51.379Z,1.73
2022-11-18T12:48:54.283Z,1.83
2022-11-18T12:51:57.563Z,1.87
2022-11-18T12:55:03.958Z,1.63
2022-11-18T13:01:36.940Z,1.43
2022-11-18T13:04:44.955Z,1.69
2022-11-18T13:08:09.475Z,1.66
2022-11-18T13:11:34.177Z,1.80
2022-11-18T13:14:57.943Z,1.65
2022-11-18T13:18:08.608Z,1.78
2022-11-18T13:21:25.189Z,1.34
2022-11-18T13:24:27.847Z,1.49
2022-11-18T13:27:36.386Z,1.40
2022-11-18T13:30:44.820Z,1.49
2022-11-18T13:33:48.992Z,1.54
2022-11-18T13:36:52.496Z,1.30
2022-11-18T13:39:55.594Z,1.24
2022-11-18T13:42:58.430Z,1.25
2022-11-18T13:46:02.156Z,1.35
2022-11-18T13:49:06.453Z,1.21
2022-11-18T13:52:11.038Z,1.20
2022-11-18T13:55:19.877Z,1.04
2022-11-18T13:58:30.808Z,1.23
2022-11-18T14:01:35.646Z,1.06
2022-11-18T14:04:46.790Z,1.15
2022-11-18T14:08:01.344Z,1.15
2022-11-18T14:11:04.169Z,1.17
2022-11-18T14:14:07.723Z,1.14
2022-11-18T14:17:17.882Z,1.24
2022-11-18T14:20:22.095Z,1.05
2022-11-18T14:23:28.483Z,0.86
2022-11-18T14:26:32.362Z,0.95
2022-11-18T14:29:35.108Z,0.78
2022-11-18T14:32:37.820Z,0.98
2022-11-18T14:35:43.332Z,1.09
2022-11-18T14:39:11.297Z,1.10
2022-11-18T14:42:12.373Z,0.96
2022-11-18T14:45:15.160Z,0.76
2022-11-18T14:48:20.432Z,0.81
2022-11-18T14:51:24.538Z,0.69
2022-11-18T14:54:28.089Z,0.70
2022-11-18T14:57:31.182Z,0.66
2022-11-18T15:00:33.877Z,0.56
2022-11-18T15:03:36.650Z,0.53
2022-11-18T15:06:41.108Z,0.47
2022-11-18T15:09:43.827Z,0.68
2022-11-18T15:12:46.445Z,0.60
2022-11-18T15:15:49.233Z,0.44
2022-11-18T15:18:52.741Z,0.34
2022-11-18T15:21:56.767Z,0.43
2022-11-18T15:24:59.448Z,0.28
2022-11-18T15:28:02.180Z,0.20
2022-11-18T15:31:04.946Z,0.26
2022-11-18T15:34:07.958Z,0.24
2022-11-18T15:37:13.318Z,0.42
2022-11-18T15:40:16.025Z,0.17
2022-11-18T15:43:18.663Z,0.33
2022-11-18T15:46:22.171Z,0.20
2022-11-18T15:49:24.918Z,0.18
2022-11-18T15:52:29.006Z,0.05
2022-11-18T15:55:31.813Z,-0.08
2022-11-18T15:58:36.095Z,0.02
2022-11-18T16:01:39.809Z,-0.02
2022-11-18T16:04:42.598Z,-0.05
2022-11-18T16:07:52.738Z,-0.06
2022-11-18T16:11:15.269Z,-0.07
2022-11-18T16:14:19.223Z,-0.02
2022-11-18T16:17:22.263Z,-0.15
2022-11-18T16:20:24.975Z,-0.16
2022-11-18T16:23:29.239Z,-0.31
2022-11-18T16:26:32.439Z,-0.28
2022-11-18T16:29:35.163Z,-0.40
2022-11-18T16:32:37.959Z,-0.46
2022-11-18T16:35:46.784Z,-0.37
2022-11-18T16:38:50.848Z,-0.61
2022-11-18T16:41:53.983Z,-0.47
2022-11-18T16:44:56.657Z,-0.47
2022-11-18T16:47:59.390Z,-0.51
2022-11-18T16:51:12.839Z,-0.56
2022-11-18T16:54:19.160Z,-0.52
2022-11-18T16:57:22.675Z,-0.59
2022-11-18T17:00:50.166Z,-0.44
2022-11-18T17:03:50.975Z,-0.52
2022-11-18T17:06:54.052Z,-0.52
2022-11-18T17:09:58.182Z,-0.42
2022-11-18T17:13:00.986Z,-0.63
2022-11-18T17:16:07.432Z,-0.62
2022-11-18T17:19:13.605Z,-0.63
2022-11-18T17:22:16.211Z,-0.75
2022-11-18T17:25:20.200Z,-0.80
2022-11-18T17:28:22.887Z,-0.66
2022-11-18T17:31:26.213Z,-0.68
2022-11-18T17:34:29.354Z,-0.89
2022-11-18T17:37:31.986Z,-0.84
2022-11-18T17:40:35.999Z,-0.75
2022-11-18T17:43:38.691Z,-0.66
2022-11-18T17:46:41.702Z,-0.52
2022-11-18T17:49:44.659Z,-0.47
2022-11-18T17:52:47.319Z,-0.80
2022-11-18T17:55:51.399Z,-0.54
2022-11-18T17:58:54.171Z,-0.63
2022-11-18T18:01:59.506Z,-0.61
2022-11-18T18:05:02.821Z,-0.83
2022-11-18T18:08:09.860Z,-0.66
2022-11-18T18:11:14.897Z,-0.82
2022-11-18T18:14:18.043Z,-0.65
2022-11-18T18:17:21.175Z,-0.85
2022-11-18T18:20:24.278Z,-0.83
2022-11-18T18:23:26.995Z,-0.76
2022-11-18T18:26:32.025Z,-0.92
2022-11-18T18:29:35.000Z,-0.83
2022-11-18T18:32:38.006Z,-0.95
2022-11-18T18:35:41.421Z,-0.89
2022-11-18T18:38:44.645Z,-0.95
2022-11-18T18:41:48.689Z,-1.13
2022-11-18T18:45:08.945Z,-1.10
2022-11-18T18:48:11.689Z,-1.15
2022-11-18T18:51:14.403Z,-1.07
2022-11-18T18:54:18.782Z,-1.00
2022-11-18T18:57:23.075Z,-1.03
2022-11-18T19:00:25.808Z,-1.09
2022-11-18T19:03:28.564Z,-1.11
2022-11-18T19:09:54.813Z,-1.26
2022-11-18T19:12:58.784Z,-1.18
2022-11-18T19:16:05.192Z,-1.25
2022-11-18T19:19:08.519Z,-1.12
2022-11-18T19:22:12.018Z,-1.24
2022-11-18T19:25:14.844Z,-1.36
2022-11-18T19:28:18.906Z,-1.22
2022-11-18T19:31:21.597Z,-1.21
2022-11-18T19:34:24.692Z,-1.32
2022-11-18T19:37:27.563Z,-1.28
2022-11-18T19:40:30.496Z,-1.23
2022-11-18T19:43:34.704Z,-1.40
2022-11-18T19:46:37.349Z,-1.37
2022-11-18T19:49:40.476Z,-1.24
2022-11-18T19:52:43.144Z,-1.18
2022-11-18T19:55:53.526Z,-1.26
2022-11-18T19:58:59.019Z,-1.36
2022-11-18T20:02:01.705Z,-1.20
2022-11-18T20:05:21.917Z,-1.17
2022-11-18T20:08:25.714Z,-1.36
2022-11-18T20:11:28.774Z,-1.24
2022-11-18T20:14:32.807Z,-1.28
2022-11-18T20:17:35.451Z,-1.28
2022-11-18T20:20:38.576Z,-1.31
2022-11-18T20:23:41.344Z,-1.23
2022-11-18T20:26:44.254Z,-1.24
2022-11-18T20:29:48.379Z,-1.17
2022-11-18T20:32:51.684Z,-1.30
2022-11-18T20:35:54.633Z,-1.44
2022-11-18T20:38:58.393Z,-1.18
2022-11-18T20:42:18.622Z,-1.13
2022-11-18T20:45:22.663Z,-1.37
2022-11-18T20:48:25.348Z,-1.41
2022-11-18T20:51:28.928Z,-1.32
2022-11-18T20:54:31.643Z,-1.67
2022-11-18T20:57:34.230Z,-1.57
2022-11-18T21:00:38.427Z,-1.39
2022-11-18T21:03:41.818Z,-1.48
2022-11-18T21:06:45.350Z,-1.42
2022-11-18T21:09:47.999Z,-1.59
2022-11-18T21:13:07.756Z,-1.45
2022-11-18T21:16:11.905Z,-1.47
2022-11-18T21:19:14.695Z,-1.37
2022-11-18T21:22:17.545Z,-1.50
2022-11-18T21:25:20.288Z,-1.48
2022-11-18T21:28:23.180Z,-1.67
2022-11-18T21:31:27.878Z,-1.63
2022-11-18T21:34:30.946Z,-1.55
2022-11-18T21:37:33.952Z,-1.45
2022-11-18T21:40:36.734Z,-1.62
2022-11-18T21:47:04.156Z,-1.50
2022-11-18T21:50:07.458Z,-1.60
2022-11-18T21:53:10.296Z,-1.59
2022-11-18T21:56:13.586Z,-1.69
2022-11-18T21:59:16.607Z,-1.82
2022-11-18T22:02:21.935Z,-1.76
2022-11-18T22:05:24.694Z,-1.78
2022-11-18T22:08:27.755Z,-1.69
2022-11-18T22:11:30.656Z,-1.86
2022-11-18T22:14:33.715Z,-1.61
2022-11-18T22:17:37.688Z,-1.66
2022-11-18T22:20:41.151Z,-2.00
2022-11-18T22:23:44.009Z,-1.86
2022-11-18T22:26:46.668Z,-1.91
2022-11-18T22:29:49.336Z,-1.92
2022-11-18T22:32:53.320Z,-1.80
2022-11-18T22:35:59.745Z,-1.94
2022-11-18T22:39:02.585Z,-1.93
2022-11-18T22:42:22.752Z,-1.75
2022-11-18T22:45:25.462Z,-1.98
2022-11-18T22:48:29.791Z,-1.95
2022-11-18T22:51:32.934Z,-2.06
2022-11-18T22:54:39.933Z,-1.95
2022-11-18T22:57:44.186Z,-1.98
2022-11-18T23:00:47.893Z,-2.00
2022-11-18T23:03:53.401Z,-1.99
2022-11-18T23:06:56.142Z,-2.00
2022-11-18T23:10:00.482Z,-2.18
2022-11-18T23:13:20.694Z,-2.21
2022-11-18T23:16:24.002Z,-2.08
2022-11-18T23:19:28.037Z,-2.04
2022-11-18T23:22:31.034Z,-2.18
2022-11-18T23:25:33.675Z,-2.03
2022-11-18T23:28:37.601Z,-1.99
2022-11-18T23:31:42.838Z,-2.19
2022-11-18T23:34:48.295Z,-2.18
2022-11-18T23:37:50.999Z,-2.18
2022-11-18T23:40:55.187Z,-2.13
2022-11-18T23:43:57.872Z,-2.26
2022-11-18T23:47:00.539Z,-2.38
2022-11-18T23:50:04.731Z,-2.08
2022-11-18T23:53:07.372Z,-2.38
2022-11-18T23:56:11.269Z,-2.36
2022-11-18T23:59:14.278Z,-2.29
